Time;durP1;ratioP1;P1;durP2;ratioP2;P2;SDS_P1;SDS_P2;PMS_P1;PMS_P2;Temp;Humidity;BMP_temperature;BMP_pressure;BME280_temperature;BME280_humidity;BME280_pressure;Samples;Min_cycle;Max_cycle;Signal;HPM_P1;HPM_P2
2024/01/05 00:02:24;;;;;;;;;;;;;;;11.28;90.73;97500.49;109149;1256;72710;-64
2024/01/05 00:04:51;;;;;;;;;;;;;;;11.22;91.02;97502.97;109176;1257;60953;-65
2024/01/05 00:07:19;;;;;;;;;;;;;;;11.13;91.37;97504.36;109172;1256;59779;-66
2024/01/05 00:09:46;;;;;;;;;;;;;;;11.16;90.99;97508.44;109288;1257;74254;-65
2024/01/05 00:12:14;;;;;;;;;;;;;;;11.15;90.99;97514.30;109272;1256;68855;-64
2024/01/05 00:14:41;;;;;;;;;;;;;;;11.24;90.57;97513.64;109159;1255;72794;-65
2024/01/05 00:17:09;;;;;;;;;;;;;;;11.28;90.12;97513.54;109326;1256;59832;-65
2024/01/05 00:19:36;;;;;;;;;;;;;;;11.19;90.71;97514.91;109573;1252;60314;-65
2024/01/05 00:22:04;;;;;;;;;;;;;;;11.39;89.49;97518.78;109601;1254;76019;-66
2024/01/05 00:24:31;;;;;;;;;;;;;;;11.31;89.71;97514.92;109615;1253;67571;-65
2024/01/05 00:26:59;;;;;;;;;;;;;;;11.29;89.81;97516.36;109328;1252;72699;-66
2024/01/05 00:29:26;;;;;;;;;;;;;;;11.33;89.36;97518.88;109514;1253;60933;-63
2024/01/05 00:31:54;;;;;;;;;;;;;;;11.32;89.03;97520.52;109560;1254;59747;-66
2024/01/05 00:34:21;;;;;;;;;;;;;;;11.23;89.42;97524.95;109255;1254;75609;-64
2024/01/05 00:36:49;;;;;;;;;;;;;;;11.13;90.26;97525.52;109299;1254;67953;-65
2024/01/05 00:39:16;;;;;;;;;;;;;;;11.24;89.63;97531.14;109469;1254;71458;-65
2024/01/05 00:41:46;;;;;;;;;;;;;;;11.37;89.20;97533.28;109554;1254;60126;-64
2024/01/05 00:44:13;;;;;;;;;;;;;;;11.23;90.09;97533.70;109488;1253;59893;-65
2024/01/05 00:46:41;;;;;;;;;;;;;;;11.22;90.39;97529.52;109614;1253;74156;-65
2024/01/05 00:49:09;;;;;;;;;;;;;;;11.26;90.41;97532.11;109535;1254;68803;-66
2024/01/05 00:51:36;;;;;;;;;;;;;;;11.38;89.61;97535.52;109450;1254;71490;-65
2024/01/05 00:54:04;;;;;;;;;;;;;;;11.39;89.69;97535.40;109357;1257;59797;-65
2024/01/05 00:56:31;;;;;;;;;;;;;;;11.50;88.68;97539.52;109481;1253;59901;-66
2024/01/05 00:58:59;;;;;;;;;;;;;;;11.52;88.44;97537.20;109468;1253;73277;-66
2024/01/05 01:01:26;;;;;;;;;;;;;;;11.41;88.94;97537.51;109454;1254;68809;-66
2024/01/05 01:03:54;;;;;;;;;;;;;;;11.39;89.01;97538.19;109467;1252;72777;-66
2024/01/05 01:06:22;;;;;;;;;;;;;;;11.24;89.73;97537.91;109430;1254;59921;-67
2024/01/05 01:08:50;;;;;;;;;;;;;;;11.34;88.89;97539.43;109433;1252;59960;-66
2024/01/05 01:11:17;;;;;;;;;;;;;;;11.44;88.14;97540.59;109487;1253;74217;-66
2024/01/05 01:13:45;;;;;;;;;;;;;;;11.26;89.14;97539.77;109319;1253;68817;-65
2024/01/05 01:16:12;;;;;;;;;;;;;;;11.61;87.51;97540.25;109368;1254;71366;-66
2024/01/05 01:18:40;;;;;;;;;;;;;;;11.64;86.79;97538.40;109253;1257;59687;-65
2024/01/05 01:21:07;;;;;;;;;;;;;;;11.79;86.25;97542.45;109274;1254;59727;-66
2024/01/05 01:23:35;;;;;;;;;;;;;;;11.87;85.87;97539.37;109220;1254;75494;-66
2024/01/05 01:26:02;;;;;;;;;;;;;;;11.83;85.53;97544.39;109369;1254;66671;-66
2024/01/05 01:28:30;;;;;;;;;;;;;;;11.69;86.20;97543.48;108992;1254;71097;-67
2024/01/05 01:30:57;;;;;;;;;;;;;;;11.72;86.39;97547.86;109261;1254;59840;-65
2024/01/05 01:33:25;;;;;;;;;;;;;;;11.77;85.78;97548.48;109283;1254;59806;-66
2024/01/05 01:35:52;;;;;;;;;;;;;;;11.71;85.93;97550.10;109326;1254;74256;-64
2024/01/05 01:38:20;;;;;;;;;;;;;;;11.56;86.18;97553.54;109281;1254;68591;-65
2024/01/05 01:40:47;;;;;;;;;;;;;;;11.51;86.37;97550.83;109288;1254;72759;-66
2024/01/05 01:43:19;;;;;;;;;;;;;;;11.42;86.90;97548.41;109242;1254;59787;-66
2024/01/05 01:45:47;;;;;;;;;;;;;;;11.28;87.60;97551.14;109255;1254;59823;-64
2024/01/05 01:48:15;;;;;;;;;;;;;;;11.29;87.59;97550.73;109399;1253;74230;-67
2024/01/05 01:50:42;;;;;;;;;;;;;;;11.26;87.70;97552.97;109365;1253;68947;-64
2024/01/05 01:53:11;;;;;;;;;;;;;;;11.34;87.04;97554.84;109455;1254;71434;-65
2024/01/05 01:55:38;;;;;;;;;;;;;;;11.22;87.56;97551.98;109433;1254;60949;-65
2024/01/05 01:58:05;;;;;;;;;;;;;;;11.21;87.72;97549.01;109458;1253;59830;-64
2024/01/05 02:00:33;;;;;;;;;;;;;;;11.29;87.31;97552.67;109439;1253;74229;-64
2024/01/05 02:03:01;;;;;;;;;;;;;;;11.23;87.36;97554.34;109447;1253;67700;-65
2024/01/05 02:05:29;;;;;;;;;;;;;;;11.26;87.01;97555.27;109203;1253;72809;-65
2024/01/05 02:07:56;;;;;;;;;;;;;;;11.05;87.92;97552.60;109441;1253;59888;-64
2024/01/05 02:10:24;;;;;;;;;;;;;;;11.14;87.22;97551.54;109346;1252;59796;-65
2024/01/05 02:12:51;;;;;;;;;;;;;;;11.29;86.17;97557.24;109491;1252;74266;-65
2024/01/05 02:15:19;;;;;;;;;;;;;;;11.19;86.22;97559.59;109646;1253;67537;-65
2024/01/05 02:17:46;;;;;;;;;;;;;;;11.16;85.88;97565.29;109505;1252;70789;-65
2024/01/05 02:20:14;;;;;;;;;;;;;;;11.19;85.52;97561.67;109594;1253;59792;-66
2024/01/05 02:22:43;;;;;;;;;;;;;;;11.14;85.02;97564.26;109462;1254;59852;-64
2024/01/05 02:25:10;;;;;;;;;;;;;;;11.14;84.20;97564.42;109518;1253;73245;-65
2024/01/05 02:27:38;;;;;;;;;;;;;;;11.20;83.29;97568.04;109546;1253;67574;-65
2024/01/05 02:30:06;;;;;;;;;;;;;;;11.25;82.44;97568.67;109606;1253;71399;-63
2024/01/05 02:32:34;;;;;;;;;;;;;;;11.16;82.44;97568.85;109545;1253;59747;-64
2024/01/05 02:35:01;;;;;;;;;;;;;;;11.01;82.23;97566.45;109475;1254;59669;-62
2024/01/05 02:37:29;;;;;;;;;;;;;;;11.06;81.55;97569.60;109571;1252;75272;-63
2024/01/05 02:39:56;;;;;;;;;;;;;;;11.16;80.59;97573.73;109266;1252;68835;-64
2024/01/05 02:42:24;;;;;;;;;;;;;;;11.20;80.15;97572.39;109388;1252;72772;-64
2024/01/05 02:44:51;;;;;;;;;;;;;;;11.10;80.26;97575.85;109450;1253;59745;-62
2024/01/05 02:47:19;;;;;;;;;;;;;;;10.95;80.77;97580.61;109554;1252;59716;-64
2024/01/05 02:49:46;;;;;;;;;;;;;;;11.00;80.60;97583.92;109502;1252;75470;-64
2024/01/05 02:52:14;;;;;;;;;;;;;;;10.92;81.25;97585.67;109446;1253;68849;-65
2024/01/05 02:54:44;;;;;;;;;;;;;;;10.95;81.06;97590.43;109373;1253;72704;-66
2024/01/05 02:57:11;;;;;;;;;;;;;;;11.04;80.37;97590.49;109444;1253;60949;-65
2024/01/05 02:59:39;;;;;;;;;;;;;;;10.96;80.49;97592.02;109422;1253;59807;-65
2024/01/05 03:02:06;;;;;;;;;;;;;;;10.77;81.81;97593.79;109519;1252;74257;-66
2024/01/05 03:04:34;;;;;;;;;;;;;;;10.63;83.03;97589.48;109510;1252;68521;-65
2024/01/05 03:07:01;;;;;;;;;;;;;;;10.73;82.89;97593.50;109465;1252;72717;-65
2024/01/05 03:09:28;;;;;;;;;;;;;;;10.64;83.39;97592.19;109448;1252;59751;-65
2024/01/05 03:11:56;;;;;;;;;;;;;;;10.69;83.33;97588.60;109597;1253;59874;-65
2024/01/05 03:14:23;;;;;;;;;;;;;;;10.89;82.32;97593.15;109596;1253;74487;-64
2024/01/05 03:16:51;;;;;;;;;;;;;;;10.88;81.89;97594.73;109476;1253;67375;-65
2024/01/05 03:19:18;;;;;;;;;;;;;;;10.80;82.46;97592.11;109635;1251;72700;-64
2024/01/05 03:21:46;;;;;;;;;;;;;;;10.60;83.64;97591.64;109438;1253;59698;-65
2024/01/05 03:24:15;;;;;;;;;;;;;;;10.46;84.86;97587.36;109609;1252;59884;-62
2024/01/05 03:26:43;;;;;;;;;;;;;;;10.43;84.66;97588.29;109580;1252;75505;-63
2024/01/05 03:29:11;;;;;;;;;;;;;;;10.51;84.71;97593.06;109651;1252;68876;-62
2024/01/05 03:31:38;;;;;;;;;;;;;;;10.47;84.79;97595.15;109563;1252;72774;-65
2024/01/05 03:34:06;;;;;;;;;;;;;;;10.53;84.82;97593.88;109576;1254;59698;-65
2024/01/05 03:36:34;;;;;;;;;;;;;;;10.66;83.66;97591.19;109587;1252;59799;-65
2024/01/05 03:39:02;;;;;;;;;;;;;;;10.69;83.04;97595.36;109553;1252;75497;-65
2024/01/05 03:41:29;;;;;;;;;;;;;;;10.55;84.05;97592.39;109613;1253;68809;-65
2024/01/05 03:43:56;;;;;;;;;;;;;;;10.49;84.25;97594.83;109566;1252;71509;-65
2024/01/05 03:46:24;;;;;;;;;;;;;;;10.15;86.38;97595.91;109539;1252;59753;-64
2024/01/05 03:48:51;;;;;;;;;;;;;;;10.16;86.58;97598.95;109439;1253;59977;-66
2024/01/05 03:51:19;;;;;;;;;;;;;;;10.09;86.90;97599.84;109375;1252;74258;-64
2024/01/05 03:53:46;;;;;;;;;;;;;;;10.14;86.36;97605.05;109138;1253;67386;-65
2024/01/05 03:56:14;;;;;;;;;;;;;;;9.97;87.41;97606.27;109250;1253;72704;-64
2024/01/05 03:58:41;;;;;;;;;;;;;;;10.07;86.64;97609.20;109374;1254;61008;-64
2024/01/05 04:01:08;;;;;;;;;;;;;;;9.93;87.55;97613.75;109509;1253;60010;-64
2024/01/05 04:03:36;;;;;;;;;;;;;;;9.84;88.53;97617.73;109459;1253;75509;-64
2024/01/05 04:06:04;;;;;;;;;;;;;;;9.94;87.83;97621.73;109388;1253;68860;-65
2024/01/05 04:08:32;;;;;;;;;;;;;;;9.73;88.89;97625.64;109456;1253;72749;-64
2024/01/05 04:10:59;;;;;;;;;;;;;;;10.15;86.14;97629.80;109227;1252;60914;-65
2024/01/05 04:13:27;;;;;;;;;;;;;;;10.07;85.36;97634.88;109363;1252;59826;-64
2024/01/05 04:15:54;;;;;;;;;;;;;;;10.15;84.13;97637.42;109515;1254;75531;-64
2024/01/05 04:18:22;;;;;;;;;;;;;;;10.22;84.21;97642.81;109621;1251;67608;-62
2024/01/05 04:20:49;;;;;;;;;;;;;;;10.34;83.56;97643.81;109595;1252;72763;-64
2024/01/05 04:23:17;;;;;;;;;;;;;;;10.29;83.23;97647.02;109453;1253;59733;-65
2024/01/05 04:25:45;;;;;;;;;;;;;;;10.16;83.44;97649.15;109616;1252;59865;-64
2024/01/05 04:28:13;;;;;;;;;;;;;;;9.82;83.92;97651.34;109517;1252;75555;-64
2024/01/05 04:30:41;;;;;;;;;;;;;;;9.94;83.80;97659.67;109454;1252;67640;-64
2024/01/05 04:33:08;;;;;;;;;;;;;;;10.19;81.47;97662.11;109585;1251;71421;-62
2024/01/05 04:35:36;;;;;;;;;;;;;;;9.91;83.01;97661.74;109623;1253;60963;-65
2024/01/05 04:38:03;;;;;;;;;;;;;;;9.85;82.29;97660.84;109610;1253;59867;-64
2024/01/05 04:40:30;;;;;;;;;;;;;;;9.89;81.48;97671.75;109560;1252;75976;-65
2024/01/05 04:42:59;;;;;;;;;;;;;;;9.70;82.02;97670.60;109444;1251;67302;-64
2024/01/05 04:45:26;;;;;;;;;;;;;;;9.71;81.87;97675.17;109611;1253;73221;-64
2024/01/05 04:47:54;;;;;;;;;;;;;;;9.66;82.52;97681.96;109050;1259;59788;-64
2024/01/05 04:50:22;;;;;;;;;;;;;;;9.49;82.50;97682.23;109465;1253;59788;-65
2024/01/05 04:52:49;;;;;;;;;;;;;;;9.68;81.46;97685.45;109443;1253;74603;-64
2024/01/05 04:55:17;;;;;;;;;;;;;;;9.63;81.26;97686.57;109168;1253;68809;-66
2024/01/05 04:57:44;;;;;;;;;;;;;;;9.84;80.00;97694.58;109452;1253;73171;-65
2024/01/05 05:00:13;;;;;;;;;;;;;;;9.91;79.31;97697.67;109393;1253;60990;-65
2024/01/05 05:02:40;;;;;;;;;;;;;;;9.83;78.95;97704.87;109153;1253;59742;-65
2024/01/05 05:05:08;;;;;;;;;;;;;;;9.84;79.09;97713.55;109207;1253;74228;-66
2024/01/05 05:07:36;;;;;;;;;;;;;;;9.72;79.41;97717.27;109468;1253;69015;-65
2024/01/05 05:10:04;;;;;;;;;;;;;;;9.73;79.35;97724.38;109515;1251;72753;-67
2024/01/05 05:12:31;;;;;;;;;;;;;;;9.67;79.52;97721.65;109545;1253;60940;-66
2024/01/05 05:14:59;;;;;;;;;;;;;;;9.83;78.76;97729.32;109542;1252;59838;-65
2024/01/05 05:17:27;;;;;;;;;;;;;;;9.74;78.41;97733.92;109512;1252;75547;-64
2024/01/05 05:19:55;;;;;;;;;;;;;;;9.88;78.27;97743.11;109201;1252;68737;-63
2024/01/05 05:22:23;;;;;;;;;;;;;;;9.77;78.10;97745.54;109534;1252;70500;-65
2024/01/05 05:24:50;;;;;;;;;;;;;;;9.57;78.93;97749.91;109427;1252;179445;-66
2024/01/05 05:27:18;;;;;;;;;;;;;;;9.56;79.23;97750.59;109643;1253;59871;-65
2024/01/05 05:29:47;;;;;;;;;;;;;;;9.66;79.11;97761.79;109475;1252;75554;-65
2024/01/05 05:32:14;;;;;;;;;;;;;;;9.73;78.53;97766.84;109361;1255;67672;-64
2024/01/05 05:34:44;;;;;;;;;;;;;;;9.85;77.69;97768.45;108976;1256;72771;-64
2024/01/05 05:37:11;;;;;;;;;;;;;;;9.50;79.09;97770.22;109166;1256;59736;-65
2024/01/05 05:39:39;;;;;;;;;;;;;;;9.74;78.50;97783.48;109141;1254;59800;-65
2024/01/05 05:42:06;;;;;;;;;;;;;;;9.70;78.63;97780.05;109187;1256;75544;-65
2024/01/05 05:44:34;;;;;;;;;;;;;;;9.72;78.99;97792.08;109204;1254;67493;-65
2024/01/05 05:47:01;;;;;;;;;;;;;;;9.65;79.93;97797.38;109066;1255;72416;-64
2024/01/05 05:49:29;;;;;;;;;;;;;;;9.80;80.00;97805.25;109067;1256;59821;-65
2024/01/05 05:51:56;;;;;;;;;;;;;;;9.79;80.37;97806.81;109001;1256;59842;-64
2024/01/05 05:54:24;;;;;;;;;;;;;;;9.79;80.58;97816.36;109167;1255;75512;-64
2024/01/05 05:56:51;;;;;;;;;;;;;;;9.73;81.21;97821.26;109132;1256;67593;-64
2024/01/05 05:59:19;;;;;;;;;;;;;;;9.73;81.51;97825.82;109051;1256;72727;-62
2024/01/05 06:01:46;;;;;;;;;;;;;;;9.48;82.51;97830.88;109091;1257;61371;-64
2024/01/05 06:04:13;;;;;;;;;;;;;;;9.38;82.88;97834.60;109327;1254;59981;-64
2024/01/05 06:06:41;;;;;;;;;;;;;;;9.39;82.81;97832.70;109488;1253;75503;-63
2024/01/05 06:09:09;;;;;;;;;;;;;;;9.41;82.68;97841.73;109536;1252;67387;-62
2024/01/05 06:11:37;;;;;;;;;;;;;;;9.25;82.71;97840.70;109536;1252;72689;-63
2024/01/05 06:14:04;;;;;;;;;;;;;;;9.28;81.84;97846.02;109373;1254;60935;-63
2024/01/05 06:16:32;;;;;;;;;;;;;;;9.03;82.38;97851.89;109315;1254;59927;-65
2024/01/05 06:18:59;;;;;;;;;;;;;;;8.90;83.10;97856.52;109270;1254;75505;-64
2024/01/05 06:21:26;;;;;;;;;;;;;;;8.77;83.77;97853.93;109366;1254;68511;-65
2024/01/05 06:23:54;;;;;;;;;;;;;;;8.64;84.53;97860.95;109278;1254;72734;-62
2024/01/05 06:26:21;;;;;;;;;;;;;;;8.72;84.51;97866.92;109287;1256;60915;-64
2024/01/05 06:28:49;;;;;;;;;;;;;;;8.66;84.31;97866.23;109298;1254;59880;-62
2024/01/05 06:31:17;;;;;;;;;;;;;;;8.64;84.56;97873.15;109387;1254;75509;-63
2024/01/05 06:33:44;;;;;;;;;;;;;;;8.73;84.11;97870.94;109132;1254;68508;-61
2024/01/05 06:36:12;;;;;;;;;;;;;;;8.59;84.68;97881.43;109068;1254;72725;-62
2024/01/05 06:38:40;;;;;;;;;;;;;;;8.81;83.67;97881.76;109107;1254;61061;-62
2024/01/05 06:41:07;;;;;;;;;;;;;;;8.64;83.88;97885.61;109286;1254;59794;-62
2024/01/05 06:43:35;;;;;;;;;;;;;;;8.36;85.25;97885.77;109277;1254;74274;-64
2024/01/05 06:46:02;;;;;;;;;;;;;;;8.39;85.61;97886.45;109488;1252;66250;-65
2024/01/05 06:48:29;;;;;;;;;;;;;;;8.65;84.38;97889.77;109558;1253;71380;-62
2024/01/05 06:50:57;;;;;;;;;;;;;;;8.69;83.48;97892.90;109129;1257;59933;-65
2024/01/05 06:53:25;;;;;;;;;;;;;;;8.58;83.12;97896.20;109121;1257;59876;-61
2024/01/05 06:55:52;;;;;;;;;;;;;;;8.63;82.54;97902.05;109110;1257;75496;-62
2024/01/05 06:58:20;;;;;;;;;;;;;;;8.76;81.49;97904.86;109092;1257;67432;-64
2024/01/05 07:00:47;;;;;;;;;;;;;;;8.80;81.06;97909.75;109077;1256;72749;-65
2024/01/05 07:03:15;;;;;;;;;;;;;;;8.92;80.67;97913.82;109122;1256;60997;-66
2024/01/05 07:05:43;;;;;;;;;;;;;;;8.88;80.15;97920.22;109084;1257;59988;-65
2024/01/05 07:08:10;;;;;;;;;;;;;;;8.64;81.26;97920.27;109021;1259;74188;-65
2024/01/05 07:10:37;;;;;;;;;;;;;;;8.89;80.80;97923.64;108982;1258;68576;-65
2024/01/05 07:13:06;;;;;;;;;;;;;;;8.73;81.37;97932.83;108986;1259;71274;-64
2024/01/05 07:15:34;;;;;;;;;;;;;;;8.75;80.95;97939.44;108924;1258;59824;-65
2024/01/05 07:18:01;;;;;;;;;;;;;;;9.03;79.45;97938.81;109008;1258;59734;-65
2024/01/05 07:20:29;;;;;;;;;;;;;;;9.04;79.24;97948.63;108876;1258;75557;-65
2024/01/05 07:22:57;;;;;;;;;;;;;;;8.83;79.96;97951.14;109167;1256;67814;-65
2024/01/05 07:25:25;;;;;;;;;;;;;;;8.71;80.66;97954.08;109163;1256;71462;-65
2024/01/05 07:27:52;;;;;;;;;;;;;;;8.75;81.21;97963.56;109169;1256;61029;-66
2024/01/05 07:30:19;;;;;;;;;;;;;;;8.75;80.72;97964.27;109082;1256;59717;-64
2024/01/05 07:32:47;;;;;;;;;;;;;;;8.91;80.03;97972.15;109184;1256;74227;-65
2024/01/05 07:35:14;;;;;;;;;;;;;;;8.85;80.38;97976.16;109166;1256;67576;-65
2024/01/05 07:37:42;;;;;;;;;;;;;;;8.60;81.68;97977.54;109174;1256;72699;-65
2024/01/05 07:40:09;;;;;;;;;;;;;;;8.47;82.41;97979.12;109184;1254;61185;-65
2024/01/05 07:42:37;;;;;;;;;;;;;;;8.61;82.25;97990.80;109569;1253;59742;-65
2024/01/05 07:45:05;;;;;;;;;;;;;;;8.65;81.74;97991.23;109601;1253;74254;-65
2024/01/05 07:47:33;;;;;;;;;;;;;;;8.68;82.00;97998.25;109558;1252;67613;-65
2024/01/05 07:50:01;;;;;;;;;;;;;;;8.95;80.86;98006.48;109516;1252;72723;-65
2024/01/05 07:52:29;;;;;;;;;;;;;;;8.89;80.95;98012.68;109372;1253;59733;-65
2024/01/05 07:54:56;;;;;;;;;;;;;;;8.97;80.58;98017.38;109455;1253;59911;-65
2024/01/05 07:57:24;;;;;;;;;;;;;;;8.77;80.93;98016.79;109355;1252;74415;-63
2024/01/05 07:59:51;;;;;;;;;;;;;;;9.01;79.70;98027.25;109435;1253;67603;-64
2024/01/05 08:02:19;;;;;;;;;;;;;;;8.76;80.56;98027.50;109266;1253;72737;-66
2024/01/05 08:04:46;;;;;;;;;;;;;;;8.82;80.03;98036.38;109304;1254;60925;-65
2024/01/05 08:07:14;;;;;;;;;;;;;;;9.00;78.51;98043.27;109460;1252;60317;-65
2024/01/05 08:09:42;;;;;;;;;;;;;;;9.05;78.17;98047.17;109422;1253;75577;-65
2024/01/05 08:12:10;;;;;;;;;;;;;;;8.86;78.86;98048.29;109556;1253;68897;-65
2024/01/05 08:14:38;;;;;;;;;;;;;;;8.71;79.80;98050.86;109578;1252;72733;-65
2024/01/05 08:17:06;;;;;;;;;;;;;;;8.86;79.41;98056.42;109366;1256;59747;-65
2024/01/05 08:19:33;;;;;;;;;;;;;;;8.76;79.30;98060.77;109554;1253;59938;-65
2024/01/05 08:22:00;;;;;;;;;;;;;;;8.90;78.69;98064.32;109547;1253;74603;-66
2024/01/05 08:24:28;;;;;;;;;;;;;;;8.91;78.93;98069.72;109588;1253;67895;-65
2024/01/05 08:26:55;;;;;;;;;;;;;;;9.11;78.22;98076.56;109556;1253;72701;-65
2024/01/05 08:29:23;;;;;;;;;;;;;;;8.94;77.72;98075.41;109541;1253;60129;-65
2024/01/05 08:31:51;;;;;;;;;;;;;;;9.00;78.15;98086.29;109614;1253;59750;-65
2024/01/05 08:34:19;;;;;;;;;;;;;;;8.99;77.37;98087.52;109551;1253;75503;-65
2024/01/05 08:36:46;;;;;;;;;;;;;;;9.01;77.08;98094.38;109541;1253;68544;-65
2024/01/05 08:39:14;;;;;;;;;;;;;;;9.07;77.16;98096.68;109297;1253;72733;-65
2024/01/05 08:41:42;;;;;;;;;;;;;;;8.77;78.05;98106.25;109570;1253;59798;-65
2024/01/05 08:44:10;;;;;;;;;;;;;;;7.82;76.87;98130.86;109555;1253;59719;-63
2024/01/05 08:46:37;;;;;;;;;;;;;;;6.91;79.25;98140.27;109582;1253;74468;-63
2024/01/05 08:49:04;;;;;;;;;;;;;;;6.59;81.21;98139.02;109458;1253;66465;-63
2024/01/05 08:51:32;;;;;;;;;;;;;;;6.01;84.42;98137.85;109488;1252;72725;-65
2024/01/05 08:54:01;;;;;;;;;;;;;;;6.06;84.14;98159.27;109457;1254;61435;-64
2024/01/05 08:56:29;;;;;;;;;;;;;;;5.92;85.82;98169.72;109368;1253;59858;-64
2024/01/05 08:58:56;;;;;;;;;;;;;;;6.10;85.34;98175.37;109393;1253;75492;-64
2024/01/05 09:01:24;;;;;;;;;;;;;;;6.21;84.90;98177.67;109360;1252;68558;-64
2024/01/05 09:03:52;;;;;;;;;;;;;;;6.03;86.81;98183.16;109346;1253;72700;-62
2024/01/05 09:06:19;;;;;;;;;;;;;;;6.29;86.22;98193.16;109459;1253;59685;-65
2024/01/05 09:08:47;;;;;;;;;;;;;;;6.30;86.35;98198.98;109263;1253;59919;-64
2024/01/05 09:11:15;;;;;;;;;;;;;;;6.20;85.92;98203.77;109619;1253;74501;-65
2024/01/05 09:13:42;;;;;;;;;;;;;;;5.96;85.33;98203.52;109600;1252;68483;-65
2024/01/05 09:16:09;;;;;;;;;;;;;;;5.93;84.82;98209.23;109561;1253;72751;-64
2024/01/05 09:18:37;;;;;;;;;;;;;;;6.05;83.59;98214.50;109561;1253;60989;-63
2024/01/05 09:21:08;;;;;;;;;;;;;;;5.64;84.90;98208.22;109135;1253;59750;-63
2024/01/05 09:23:36;;;;;;;;;;;;;;;5.89;84.52;98213.48;109216;1252;75586;-64
2024/01/05 09:26:03;;;;;;;;;;;;;;;6.02;83.80;98225.77;109439;1254;67059;-64
2024/01/05 09:28:31;;;;;;;;;;;;;;;5.92;84.87;98224.20;109307;1254;72744;-65
2024/01/05 09:30:58;;;;;;;;;;;;;;;6.34;83.49;98236.42;109273;1254;59834;-65
2024/01/05 09:33:26;;;;;;;;;;;;;;;6.19;83.35;98239.04;109252;1255;59946;-65
2024/01/05 09:35:53;;;;;;;;;;;;;;;6.24;82.96;98245.05;109345;1254;74248;-66
2024/01/05 09:38:21;;;;;;;;;;;;;;;6.02;80.86;98247.29;109088;1254;68546;-64
2024/01/05 09:40:52;;;;;;;;;;;;;;;5.84;77.60;98257.64;109260;1256;71589;-65
2024/01/05 09:43:26;;;;;;;;;;;;;;;5.85;77.21;98260.14;109008;1255;60970;-66
2024/01/05 09:45:55;;;;;;;;;;;;;;;5.56;75.53;98248.88;109198;1255;59877;-63
2024/01/05 09:48:22;;;;;;;;;;;;;;;5.48;77.07;98257.05;109291;1256;73248;-62
2024/01/05 09:51:03;;;;;;;;;;;;;;;5.42;76.50;98252.24;109086;1255;67673;-63
2024/01/05 09:53:30;;;;;;;;;;;;;;;5.37;76.61;98276.91;109241;1257;72745;-64
2024/01/05 09:55:59;;;;;;;;;;;;;;;5.29;75.98;98280.82;109223;1256;61068;-65
2024/01/05 09:58:26;;;;;;;;;;;;;;;4.99;76.26;98285.00;109361;1253;60232;-65
2024/01/05 10:00:54;;;;;;;;;;;;;;;4.84;76.95;98301.48;109131;1253;74364;-66
2024/01/05 10:03:23;;;;;;;;;;;;;;;4.63;77.81;98305.55;109614;1252;68521;-63
2024/01/05 10:05:53;;;;;;;;;;;;;;;4.81;77.26;98312.33;109548;1252;71150;-63
2024/01/05 10:08:23;;;;;;;;;;;;;;;4.62;76.49;98331.20;109542;1253;59770;-64
2024/01/05 10:11:01;;;;;;;;;;;;;;;4.48;77.76;98330.64;109600;1252;59876;-64
2024/01/05 10:13:29;;;;;;;;;;;;;;;4.76;76.93;98341.25;109593;1252;74591;-63
2024/01/05 10:15:59;;;;;;;;;;;;;;;4.82;76.79;98345.88;109587;1252;67821;-66
2024/01/05 10:18:28;;;;;;;;;;;;;;;5.04;76.53;98355.75;109522;1256;72732;-65
2024/01/05 10:20:57;;;;;;;;;;;;;;;4.59;75.79;98341.55;109544;1252;59672;-65
2024/01/05 10:23:24;;;;;;;;;;;;;;;4.84;75.17;98369.68;109557;1253;59856;-65
2024/01/05 10:25:52;;;;;;;;;;;;;;;4.56;71.45;98381.15;109590;1253;73261;-64
2024/01/05 10:28:21;;;;;;;;;;;;;;;4.44;70.56;98388.03;109594;1252;68941;-65
2024/01/05 10:30:48;;;;;;;;;;;;;;;4.06;69.77;98382.15;109549;1253;72729;-65
2024/01/05 10:33:18;;;;;;;;;;;;;;;4.03;69.44;98391.30;109165;1254;60512;-64
2024/01/05 10:35:46;;;;;;;;;;;;;;;4.24;69.90;98402.92;109555;1253;59690;-61
2024/01/05 10:38:14;;;;;;;;;;;;;;;4.07;69.56;98409.63;109575;1252;75501;-63
2024/01/05 10:40:41;;;;;;;;;;;;;;;3.60;68.27;98414.61;109608;1253;68818;-65
2024/01/05 10:43:12;;;;;;;;;;;;;;;3.61;68.58;98408.85;109578;1252;70446;-63
2024/01/05 10:45:40;;;;;;;;;;;;;;;3.64;67.91;98421.38;109617;1252;59860;-65
2024/01/05 10:48:09;;;;;;;;;;;;;;;3.71;67.41;98426.02;109587;1252;59859;-64
2024/01/05 10:50:37;;;;;;;;;;;;;;;3.68;65.17;98444.48;109483;1253;75535;-65
2024/01/05 10:53:05;;;;;;;;;;;;;;;3.72;63.89;98446.02;109427;1253;67629;-63
2024/01/05 10:55:33;;;;;;;;;;;;;;;3.67;62.76;98445.17;109578;1253;72700;-62
2024/01/05 10:58:01;;;;;;;;;;;;;;;3.78;62.35;98455.02;109521;1253;61014;-65
2024/01/05 11:00:28;;;;;;;;;;;;;;;4.00;62.84;98458.15;109594;1252;59785;-65
2024/01/05 11:03:14;;;;;;;;;;;;;;;3.50;64.06;98448.66;109592;1253;75573;-61
2024/01/05 11:05:42;;;;;;;;;;;;;;;3.38;63.99;98467.89;109610;1252;68821;-64
2024/01/05 11:08:13;;;;;;;;;;;;;;;3.53;64.18;98480.50;109600;1252;72748;-65
2024/01/05 11:10:44;;;;;;;;;;;;;;;3.40;63.89;98486.60;109529;1254;60008;-67
2024/01/05 11:13:35;;;;;;;;;;;;;;;3.34;63.73;98493.31;109600;1252;59723;-62
2024/01/05 11:16:21;;;;;;;;;;;;;;;3.48;63.63;98499.75;109649;1252;75618;-64
2024/01/05 11:18:55;;;;;;;;;;;;;;;3.38;62.58;98503.73;109559;1252;68527;-64
2024/01/05 11:21:24;;;;;;;;;;;;;;;3.06;61.69;98500.18;109222;1256;72769;-63
2024/01/05 11:23:54;;;;;;;;;;;;;;;2.84;62.05;98512.17;109216;1256;59738;-61
2024/01/05 11:26:39;;;;;;;;;;;;;;;2.94;62.17;98519.66;109099;1257;59984;-63
2024/01/05 11:29:09;;;;;;;;;;;;;;;3.22;61.38;98524.45;109096;1257;75690;-64
2024/01/05 11:31:45;;;;;;;;;;;;;;;3.27;61.48;98534.64;109025;1257;69127;-65
2024/01/05 11:34:31;;;;;;;;;;;;;;;3.16;63.06;98538.75;109070;1257;71487;-63
2024/01/05 11:37:00;;;;;;;;;;;;;;;3.05;64.64;98539.52;109082;1257;59865;-63
2024/01/05 11:39:45;;;;;;;;;;;;;;;2.87;65.74;98543.02;109048;1257;59760;-60
2024/01/05 11:42:25;;;;;;;;;;;;;;;2.72;64.91;98550.14;109072;1256;75677;-65
2024/01/05 11:44:53;;;;;;;;;;;;;;;2.16;64.88;98553.20;108915;1256;67283;-64
2024/01/05 11:47:56;;;;;;;;;;;;;;;2.37;62.94;98572.41;109175;1256;72769;-61
2024/01/05 11:50:33;;;;;;;;;;;;;;;2.28;62.90;98557.49;108695;1262;60949;-62
2024/01/05 11:53:15;;;;;;;;;;;;;;;2.00;62.78;98565.88;108856;1262;59896;-61
2024/01/05 11:55:46;;;;;;;;;;;;;;;1.91;61.50;98571.88;108820;1262;75897;-61
2024/01/05 11:58:17;;;;;;;;;;;;;;;2.30;59.63;98579.30;108929;1259;68812;-63
2024/01/05 12:00:46;;;;;;;;;;;;;;;1.88;58.29;98580.10;108990;1259;72790;-61
2024/01/05 12:03:15;;;;;;;;;;;;;;;1.97;57.58;98586.56;108975;1259;61768;-63
2024/01/05 12:05:43;;;;;;;;;;;;;;;1.70;57.79;98591.03;109017;1259;59933;-60
2024/01/05 12:08:15;;;;;;;;;;;;;;;1.85;57.24;98597.50;108995;1260;75545;-64
2024/01/05 12:10:42;;;;;;;;;;;;;;;1.67;55.80;98597.78;108957;1260;69150;-61
2024/01/05 12:13:10;;;;;;;;;;;;;;;1.50;54.54;98593.19;108922;1260;72742;-61
2024/01/05 12:15:38;;;;;;;;;;;;;;;1.65;53.48;98600.34;108919;1260;59927;-61
2024/01/05 12:18:22;;;;;;;;;;;;;;;1.68;52.81;98615.92;108871;1262;59937;-60
2024/01/05 12:21:03;;;;;;;;;;;;;;;1.45;51.26;98591.85;108915;1262;75589;-61
2024/01/05 12:23:31;;;;;;;;;;;;;;;1.55;50.23;98617.52;108923;1260;67632;-61
2024/01/05 12:26:05;;;;;;;;;;;;;;;1.73;50.85;98623.98;109525;1252;72709;-60
2024/01/05 12:28:37;;;;;;;;;;;;;;;1.58;50.42;98633.48;109584;1253;61742;-61
2024/01/05 12:31:05;;;;;;;;;;;;;;;1.63;50.37;98644.14;109566;1257;59870;-62
2024/01/05 12:33:34;;;;;;;;;;;;;;;1.68;49.17;98646.41;109160;1252;75533;-64
2024/01/05 12:36:04;;;;;;;;;;;;;;;1.81;49.50;98651.66;109138;1252;68858;-61
2024/01/05 12:38:36;;;;;;;;;;;;;;;1.69;50.43;98651.52;109304;1252;72733;-61
2024/01/05 12:41:08;;;;;;;;;;;;;;;1.69;50.26;98652.27;109506;1252;61709;-62
2024/01/05 12:43:36;;;;;;;;;;;;;;;1.66;50.01;98660.84;109555;1253;59854;-64
2024/01/05 12:46:04;;;;;;;;;;;;;;;1.92;48.54;98663.23;109574;1253;75519;-62
2024/01/05 12:48:33;;;;;;;;;;;;;;;1.85;48.43;98666.80;109403;1253;67598;-63
2024/01/05 12:51:03;;;;;;;;;;;;;;;1.67;48.72;98676.00;109062;1253;72728;-62